sensor_id;sensor_type;location;lat;lon;timestamp;pressure;altitude;pressure_sealevel;temperature;humidity
20156;BME280;10238;49.556;10.956;2024-03-02T00:00:11;97311.88;;;5.11;100.00
20156;BME280;10238;49.556;10.956;2024-03-02T00:02:59;97306.63;;;5.11;100.00
20156;BME280;10238;49.556;10.956;2024-03-02T00:05:50;97311.88;;;5.11;100.00
20156;BME280;10238;49.556;10.956;2024-03-02T00:08:39;97307.47;;;5.12;100.00
20156;BME280;10238;49.556;10.956;2024-03-02T00:11:26;97304.69;;;5.13;100.00
20156;BME280;10238;49.556;10.956;2024-03-02T00:14:16;97304.34;;;5.16;100.00
20156;BME280;10238;49.556;10.956;2024-03-02T00:17:04;97304.91;;;5.20;100.00
20156;BME280;10238;49.556;10.956;2024-03-02T00:19:52;97301.44;;;5.19;100.00
20156;BME280;10238;49.556;10.956;2024-03-02T00:22:40;97301.44;;;5.19;100.00
20156;BME280;10238;49.556;10.956;2024-03-02T00:25:36;97296.56;;;5.24;100.00
20156;BME280;10238;49.556;10.956;2024-03-02T00:28:27;97301.53;;;5.27;100.00
20156;BME280;10238;49.556;10.956;2024-03-02T00:31:20;97304.88;;;5.29;100.00
20156;BME280;10238;49.556;10.956;2024-03-02T00:34:08;97302.22;;;5.29;100.00
20156;BME280;10238;49.556;10.956;2024-03-02T00:36:58;97301.53;;;5.27;100.00
20156;BME280;10238;49.556;10.956;2024-03-02T00:39:49;97304.72;;;5.31;100.00
20156;BME280;10238;49.556;10.956;2024-03-02T00:42:37;97309.81;;;5.32;100.00
20156;BME280;10238;49.556;10.956;2024-03-02T00:45:26;97306.22;;;5.33;100.00
20156;BME280;10238;49.556;10.956;2024-03-02T00:48:16;97309.53;;;5.35;100.00
20156;BME280;10238;49.556;10.956;2024-03-02T00:51:04;97311.19;;;5.36;100.00
20156;BME280;10238;49.556;10.956;2024-03-02T00:53:54;97312.69;;;5.39;100.00
20156;BME280;10238;49.556;10.956;2024-03-02T00:56:43;97304.34;;;5.43;100.00
20156;BME280;10238;49.556;10.956;2024-03-02T00:59:31;97318.66;;;5.41;100.00
20156;BME280;10238;49.556;10.956;2024-03-02T01:02:19;97320.34;;;5.32;100.00
20156;BME280;10238;49.556;10.956;2024-03-02T01:05:08;97313.22;;;5.25;100.00
20156;BME280;10238;49.556;10.956;2024-03-02T01:07:55;97326.53;;;5.23;100.00
20156;BME280;10238;49.556;10.956;2024-03-02T01:10:43;97317.63;;;5.24;100.00
20156;BME280;10238;49.556;10.956;2024-03-02T01:13:31;97318.63;;;5.23;100.00
20156;BME280;10238;49.556;10.956;2024-03-02T01:16:19;97331.25;;;5.20;100.00
20156;BME280;10238;49.556;10.956;2024-03-02T01:19:07;97329.06;;;5.15;100.00
20156;BME280;10238;49.556;10.956;2024-03-02T01:21:57;97318.50;;;5.15;100.00
20156;BME280;10238;49.556;10.956;2024-03-02T01:24:45;97307.31;;;5.13;100.00
20156;BME280;10238;49.556;10.956;2024-03-02T01:27:33;97306.63;;;5.11;100.00
20156;BME280;10238;49.556;10.956;2024-03-02T01:30:21;97308.56;;;5.09;100.00
20156;BME280;10238;49.556;10.956;2024-03-02T01:33:08;97309.69;;;5.07;100.00
20156;BME280;10238;49.556;10.956;2024-03-02T01:35:56;97309.97;;;5.04;100.00
20156;BME280;10238;49.556;10.956;2024-03-02T01:38:46;97315.38;;;5.02;100.00
20156;BME280;10238;49.556;10.956;2024-03-02T01:41:33;97315.53;;;5.01;100.00
20156;BME280;10238;49.556;10.956;2024-03-02T01:44:21;97313.88;;;5.00;100.00
20156;BME280;10238;49.556;10.956;2024-03-02T01:47:09;97309.56;;;4.99;100.00
20156;BME280;10238;49.556;10.956;2024-03-02T01:49:56;97311.25;;;5.00;100.00
20156;BME280;10238;49.556;10.956;2024-03-02T01:52:44;97313.19;;;4.98;100.00
20156;BME280;10238;49.556;10.956;2024-03-02T01:55:34;97319.59;;;4.95;100.00
20156;BME280;10238;49.556;10.956;2024-03-02T01:58:21;97318.59;;;4.96;100.00
20156;BME280;10238;49.556;10.956;2024-03-02T02:01:08;97316.97;;;4.95;100.00
20156;BME280;10238;49.556;10.956;2024-03-02T02:03:57;97319.72;;;4.94;100.00
20156;BME280;10238;49.556;10.956;2024-03-02T02:06:45;97320.88;;;4.91;100.00
20156;BME280;10238;49.556;10.956;2024-03-02T02:09:32;97315.31;;;4.94;100.00
20156;BME280;10238;49.556;10.956;2024-03-02T02:12:21;97318.91;;;4.93;100.00
20156;BME280;10238;49.556;10.956;2024-03-02T02:15:25;97314.91;;;4.89;100.00
20156;BME280;10238;49.556;10.956;2024-03-02T02:18:13;97310.34;;;4.91;100.00
20156;BME280;10238;49.556;10.956;2024-03-02T02:21:01;97308.91;;;4.97;100.00
20156;BME280;10238;49.556;10.956;2024-03-02T02:23:50;97318.91;;;4.93;100.00
20156;BME280;10238;49.556;10.956;2024-03-02T02:26:37;97317.81;;;4.86;100.00
20156;BME280;10238;49.556;10.956;2024-03-02T02:29:25;97314.50;;;4.84;100.00
20156;BME280;10238;49.556;10.956;2024-03-02T02:32:13;97320.75;;;4.83;100.00
20156;BME280;10238;49.556;10.956;2024-03-02T02:35:00;97318.94;;;4.84;100.00
20156;BME280;10238;49.556;10.956;2024-03-02T02:37:52;97316.97;;;4.86;100.00
20156;BME280;10238;49.556;10.956;2024-03-02T02:40:41;97316.19;;;4.85;100.00
20156;BME280;10238;49.556;10.956;2024-03-02T02:43:29;97316.97;;;4.86;100.00
20156;BME280;10238;49.556;10.956;2024-03-02T02:46:17;97316.97;;;4.86;100.00
20156;BME280;10238;49.556;10.956;2024-03-02T02:49:04;97316.19;;;4.85;100.00
20156;BME280;10238;49.556;10.956;2024-03-02T02:51:52;97320.47;;;4.86;100.00
20156;BME280;10238;49.556;10.956;2024-03-02T02:54:40;97308.94;;;4.87;100.00
20156;BME280;10238;49.556;10.956;2024-03-02T02:57:29;97309.63;;;4.89;100.00
20156;BME280;10238;49.556;10.956;2024-03-02T03:00:21;97303.09;;;4.93;100.00
20156;BME280;10238;49.556;10.956;2024-03-02T03:03:09;97303.94;;;4.94;100.00
20156;BME280;10238;49.556;10.956;2024-03-02T03:05:57;97312.34;;;4.97;100.00
20156;BME280;10238;49.556;10.956;2024-03-02T03:08:44;97303.06;;;5.03;100.00
20156;BME280;10238;49.556;10.956;2024-03-02T03:11:32;97304.00;;;5.11;100.00
20156;BME280;10238;49.556;10.956;2024-03-02T03:14:21;97309.09;;;5.13;100.00
20156;BME280;10238;49.556;10.956;2024-03-02T03:17:09;97317.09;;;5.21;100.00
20156;BME280;10238;49.556;10.956;2024-03-02T03:19:56;97311.78;;;5.30;100.00
20156;BME280;10238;49.556;10.956;2024-03-02T03:22:45;97310.00;;;5.31;100.00
20156;BME280;10238;49.556;10.956;2024-03-02T03:25:32;97310.94;;;5.30;100.00
20156;BME280;10238;49.556;10.956;2024-03-02T03:28:20;97314.28;;;5.32;100.00
20156;BME280;10238;49.556;10.956;2024-03-02T03:31:09;97315.09;;;5.32;100.00
20156;BME280;10238;49.556;10.956;2024-03-02T03:33:56;97312.78;;;5.29;100.00
20156;BME280;10238;49.556;10.956;2024-03-02T03:36:45;97310.81;;;5.31;100.00
20156;BME280;10238;49.556;10.956;2024-03-02T03:39:34;97322.63;;;5.27;100.00
20156;BME280;10238;49.556;10.956;2024-03-02T03:42:22;97315.41;;;5.29;100.00
20156;BME280;10238;49.556;10.956;2024-03-02T03:45:10;97319.00;;;5.28;100.00
20156;BME280;10238;49.556;10.956;2024-03-02T03:47:59;97311.94;;;5.29;100.00
20156;BME280;10238;49.556;10.956;2024-03-02T03:50:47;97315.41;;;5.29;100.00
20156;BME280;10238;49.556;10.956;2024-03-02T03:53:34;97302.38;;;5.28;100.00
20156;BME280;10238;49.556;10.956;2024-03-02T03:56:22;97310.94;;;5.30;100.00
20156;BME280;10238;49.556;10.956;2024-03-02T03:59:09;97318.03;;;5.29;100.00
20156;BME280;10238;49.556;10.956;2024-03-02T04:01:57;97313.22;;;5.25;100.00
20156;BME280;10238;49.556;10.956;2024-03-02T04:04:45;97309.59;;;5.26;100.00
20156;BME280;10238;49.556;10.956;2024-03-02T04:07:33;97301.13;;;5.22;100.00
20156;BME280;10238;49.556;10.956;2024-03-02T04:10:25;97311.00;;;5.20;100.00
20156;BME280;10238;49.556;10.956;2024-03-02T04:13:12;97313.94;;;5.17;100.00
20156;BME280;10238;49.556;10.956;2024-03-02T04:16:00;97314.22;;;5.14;100.00
20156;BME280;10238;49.556;10.956;2024-03-02T04:18:50;97314.81;;;5.08;100.00
20156;BME280;10238;49.556;10.956;2024-03-02T04:21:39;97305.56;;;5.04;100.00
20156;BME280;10238;49.556;10.956;2024-03-02T04:24:26;97311.09;;;5.01;100.00
20156;BME280;10238;49.556;10.956;2024-03-02T04:27:14;97313.06;;;4.99;100.00
20156;BME280;10238;49.556;10.956;2024-03-02T04:30:02;97324.16;;;4.93;100.00
20156;BME280;10238;49.556;10.956;2024-03-02T04:32:50;97326.13;;;4.91;100.00
20156;BME280;10238;49.556;10.956;2024-03-02T04:35:38;97333.31;;;4.89;100.00
20156;BME280;10238;49.556;10.956;2024-03-02T04:38:26;97328.91;;;4.90;100.00
20156;BME280;10238;49.556;10.956;2024-03-02T04:41:15;97326.13;;;4.91;100.00
20156;BME280;10238;49.556;10.956;2024-03-02T04:44:03;97334.69;;;4.93;100.00
20156;BME280;10238;49.556;10.956;2024-03-02T04:46:50;97329.97;;;4.97;100.00
20156;BME280;10238;49.556;10.956;2024-03-02T04:49:38;97324.41;;;5.00;100.00
20156;BME280;10238;49.556;10.956;2024-03-02T04:52:26;97325.38;;;4.99;100.00
20156;BME280;10238;49.556;10.956;2024-03-02T04:55:15;97323.22;;;4.94;100.00
20156;BME280;10238;49.556;10.956;2024-03-02T04:58:31;97330.34;;;5.02;100.00
20156;BME280;10238;49.556;10.956;2024-03-02T05:01:19;97328.28;;;5.05;100.00
20156;BME280;10238;49.556;10.956;2024-03-02T05:04:07;97327.44;;;5.05;100.00
20156;BME280;10238;49.556;10.956;2024-03-02T05:06:54;97331.88;;;5.04;100.00
20156;BME280;10238;49.556;10.956;2024-03-02T05:09:44;97333.81;;;5.02;100.00
20156;BME280;10238;49.556;10.956;2024-03-02T05:12:33;97337.44;;;5.01;100.00
20156;BME280;10238;49.556;10.956;2024-03-02T05:15:42;97333.75;;;4.94;100.00
20156;BME280;10238;49.556;10.956;2024-03-02T05:18:30;97327.78;;;4.92;100.00
20156;BME280;10238;49.556;10.956;2024-03-02T05:21:18;97333.75;;;4.94;100.00
20156;BME280;10238;49.556;10.956;2024-03-02T05:24:07;97337.88;;;4.97;100.00
20156;BME280;10238;49.556;10.956;2024-03-02T05:26:54;97341.31;;;4.97;100.00
20156;BME280;10238;49.556;10.956;2024-03-02T05:29:43;97341.88;;;5.01;100.00
20156;BME280;10238;49.556;10.956;2024-03-02T05:32:31;97348.78;;;5.02;100.00
20156;BME280;10238;49.556;10.956;2024-03-02T05:35:19;97334.91;;;5.09;100.00
20156;BME280;10238;49.556;10.956;2024-03-02T05:38:06;97341.00;;;5.10;100.00
20156;BME280;10238;49.556;10.956;2024-03-02T05:40:55;97341.56;;;5.13;100.00
20156;BME280;10238;49.556;10.956;2024-03-02T05:43:42;97341.56;;;5.13;100.00
20156;BME280;10238;49.556;10.956;2024-03-02T05:46:32;97343.50;;;5.11;100.00
20156;BME280;10238;49.556;10.956;2024-03-02T05:49:20;97341.16;;;5.08;100.00
20156;BME280;10238;49.556;10.956;2024-03-02T05:52:07;97350.41;;;5.12;100.00
20156;BME280;10238;49.556;10.956;2024-03-02T05:54:55;97345.56;;;5.08;100.00
20156;BME280;10238;49.556;10.956;2024-03-02T05:57:42;97347.69;;;5.04;100.00
20156;BME280;10238;49.556;10.956;2024-03-02T06:00:45;97354.47;;;4.97;100.00
20156;BME280;10238;49.556;10.956;2024-03-02T06:03:34;97353.81;;;4.95;100.00
20156;BME280;10238;49.556;10.956;2024-03-02T06:06:22;97360.06;;;4.94;100.00
20156;BME280;10238;49.556;10.956;2024-03-02T06:09:10;97348.84;;;4.92;100.00
20156;BME280;10238;49.556;10.956;2024-03-02T06:11:59;97360.78;;;4.87;100.00
20156;BME280;10238;49.556;10.956;2024-03-02T06:14:46;97348.06;;;4.82;100.00
20156;BME280;10238;49.556;10.956;2024-03-02T06:17:36;97360.22;;;4.83;100.00
20156;BME280;10238;49.556;10.956;2024-03-02T06:20:25;97361.88;;;4.84;100.00
20156;BME280;10238;49.556;10.956;2024-03-02T06:23:13;97360.22;;;4.83;100.00
20156;BME280;10238;49.556;10.956;2024-03-02T06:26:01;97364.94;;;4.80;100.00
20156;BME280;10238;49.556;10.956;2024-03-02T06:28:49;97364.13;;;4.79;100.00
20156;BME280;10238;49.556;10.956;2024-03-02T06:31:37;97370.53;;;4.77;100.00
20156;BME280;10238;49.556;10.956;2024-03-02T06:34:24;97362.34;;;4.70;100.00
20156;BME280;10238;49.556;10.956;2024-03-02T06:37:13;97370.66;;;4.66;100.00
20156;BME280;10238;49.556;10.956;2024-03-02T06:40:02;97361.56;;;4.60;100.00
20156;BME280;10238;49.556;10.956;2024-03-02T06:42:50;97360.19;;;4.56;100.00
20156;BME280;10238;49.556;10.956;2024-03-02T06:45:38;97364.75;;;4.54;100.00
20156;BME280;10238;49.556;10.956;2024-03-02T06:48:25;97366.66;;;4.52;100.00
20156;BME280;10238;49.556;10.956;2024-03-02T06:51:15;97361.41;;;4.52;100.00
20156;BME280;10238;49.556;10.956;2024-03-02T06:54:04;97366.66;;;4.52;100.00
20156;BME280;10238;49.556;10.956;2024-03-02T06:56:53;97366.66;;;4.52;100.00
20156;BME280;10238;49.556;10.956;2024-03-02T06:59:40;97357.84;;;4.53;100.00
20156;BME280;10238;49.556;10.956;2024-03-02T07:02:28;97360.47;;;4.53;100.00
20156;BME280;10238;49.556;10.956;2024-03-02T07:05:16;97367.09;;;4.57;100.00
20156;BME280;10238;49.556;10.956;2024-03-02T07:08:05;97361.25;;;4.63;100.00
20156;BME280;10238;49.556;10.956;2024-03-02T07:10:57;97364.97;;;4.70;100.00
20156;BME280;10238;49.556;10.956;2024-03-02T07:13:44;97371.16;;;4.88;100.00
20156;BME280;10238;49.556;10.956;2024-03-02T07:16:32;97363.78;;;5.01;100.00
20156;BME280;10238;49.556;10.956;2024-03-02T07:19:21;97369.25;;;5.17;100.00
20156;BME280;10238;49.556;10.956;2024-03-02T07:22:08;97368.19;;;5.37;100.00
20156;BME280;10238;49.556;10.956;2024-03-02T07:24:57;97363.19;;;5.61;100.00
20156;BME280;10238;49.556;10.956;2024-03-02T07:27:46;97382.63;;;5.87;100.00
20156;BME280;10238;49.556;10.956;2024-03-02T07:30:34;97374.63;;;5.97;100.00
20156;BME280;10238;49.556;10.956;2024-03-02T07:33:24;97367.75;;;6.04;100.00
20156;BME280;10238;49.556;10.956;2024-03-02T07:36:29;97376.75;;;6.11;100.00
20156;BME280;10238;49.556;10.956;2024-03-02T07:39:35;97375.81;;;6.20;100.00
20156;BME280;10238;49.556;10.956;2024-03-02T07:42:40;97382.97;;;6.27;100.00
20156;BME280;10238;49.556;10.956;2024-03-02T07:45:47;97379.13;;;6.39;100.00
20156;BME280;10238;49.556;10.956;2024-03-02T07:49:06;97372.09;;;6.48;100.00
20156;BME280;10238;49.556;10.956;2024-03-02T07:52:24;97369.38;;;6.57;100.00
20156;BME280;10238;49.556;10.956;2024-03-02T07:55:43;97372.75;;;6.68;100.00
20156;BME280;10238;49.556;10.956;2024-03-02T07:59:02;97374.16;;;6.80;100.00
20156;BME280;10238;49.556;10.956;2024-03-02T08:02:21;97387.09;;;6.91;100.00
20156;BME280;10238;49.556;10.956;2024-03-02T08:05:39;97382.22;;;7.04;100.00
20156;BME280;10238;49.556;10.956;2024-03-02T08:08:57;97389.91;;;7.15;100.00
20156;BME280;10238;49.556;10.956;2024-03-02T08:12:16;97390.91;;;7.22;100.00
20156;BME280;10238;49.556;10.956;2024-03-02T08:15:34;97387.97;;;7.33;100.00
20156;BME280;10238;49.556;10.956;2024-03-02T08:18:55;97394.31;;;7.40;100.00
20156;BME280;10238;49.556;10.956;2024-03-02T08:22:15;97389.06;;;7.48;100.00
20156;BME280;10238;49.556;10.956;2024-03-02T08:25:33;97388.72;;;7.51;100.00
20156;BME280;10238;49.556;10.956;2024-03-02T08:28:51;97385.97;;;7.60;100.00
20156;BME280;10238;49.556;10.956;2024-03-02T08:32:08;97382.03;;;7.72;100.00
20156;BME280;10238;49.556;10.956;2024-03-02T08:35:29;97381.22;;;7.80;100.00
20156;BME280;10238;49.556;10.956;2024-03-02T08:38:52;97383.38;;;7.84;100.00
20156;BME280;10238;49.556;10.956;2024-03-02T08:42:10;97379.25;;;7.90;100.00
20156;BME280;10238;49.556;10.956;2024-03-02T08:45:28;97382.59;;;8.00;100.00
20156;BME280;10238;49.556;10.956;2024-03-02T08:48:46;97381.28;;;8.12;100.00
20156;BME280;10238;49.556;10.956;2024-03-02T08:52:06;97382.69;;;8.24;100.00
20156;BME280;10238;49.556;10.956;2024-03-02T08:55:24;97383.69;;;8.39;100.00
20156;BME280;10238;49.556;10.956;2024-03-02T08:58:43;97390.47;;;8.49;100.00
20156;BME280;10238;49.556;10.956;2024-03-02T09:02:01;97388.66;;;8.58;100.00
20156;BME280;10238;49.556;10.956;2024-03-02T09:05:19;97391.28;;;8.66;100.00
20156;BME280;10238;49.556;10.956;2024-03-02T09:08:38;97384.66;;;8.78;100.00
20156;BME280;10238;49.556;10.956;2024-03-02T09:11:55;97379.00;;;8.89;100.00
20156;BME280;10238;49.556;10.956;2024-03-02T09:15:13;97376.34;;;8.97;100.00
20156;BME280;10238;49.556;10.956;2024-03-02T09:18:02;97372.03;;;9.04;100.00
20156;BME280;10238;49.556;10.956;2024-03-02T09:20:51;97375.31;;;9.14;100.00
20156;BME280;10238;49.556;10.956;2024-03-02T09:23:40;97378.31;;;9.19;100.00
20156;BME280;10238;49.556;10.956;2024-03-02T09:26:28;97372.81;;;9.21;100.00
20156;BME280;10238;49.556;10.956;2024-03-02T09:29:15;97365.84;;;9.28;100.00
20156;BME280;10238;49.556;10.956;2024-03-02T09:32:05;97363.00;;;9.37;100.00
20156;BME280;10238;49.556;10.956;2024-03-02T09:34:53;97369.91;;;9.46;100.00
20156;BME280;10238;49.556;10.956;2024-03-02T09:37:42;97374.19;;;9.55;100.00
20156;BME280;10238;49.556;10.956;2024-03-02T09:40:31;97374.81;;;9.65;100.00
20156;BME280;10238;49.556;10.956;2024-03-02T09:43:19;97363.13;;;9.82;100.00
20156;BME280;10238;49.556;10.956;2024-03-02T09:46:09;97364.38;;;9.94;100.00
20156;BME280;10238;49.556;10.956;2024-03-02T09:48:58;97359.38;;;10.07;100.00
20156;BME280;10238;49.556;10.956;2024-03-02T09:51:48;97361.47;;;10.12;100.00
20156;BME280;10238;49.556;10.956;2024-03-02T09:54:37;97359.13;;;10.17;100.00
20156;BME280;10238;49.556;10.956;2024-03-02T09:57:26;97363.72;;;10.23;100.00
20156;BME280;10238;49.556;10.956;2024-03-02T10:00:15;97357.06;;;10.27;100.00
20156;BME280;10238;49.556;10.956;2024-03-02T10:03:04;97349.56;;;10.30;100.00
20156;BME280;10238;49.556;10.956;2024-03-02T10:05:52;97355.09;;;10.43;100.00
20156;BME280;10238;49.556;10.956;2024-03-02T10:08:43;97351.22;;;10.54;100.00
20156;BME280;10238;49.556;10.956;2024-03-02T10:11:33;97353.25;;;10.66;100.00
20156;BME280;10238;49.556;10.956;2024-03-02T10:14:24;97345.84;;;10.76;100.00
20156;BME280;10238;49.556;10.956;2024-03-02T10:17:13;97347.88;;;10.74;100.00
20156;BME280;10238;49.556;10.956;2024-03-02T10:20:22;97346.75;;;10.83;100.00
20156;BME280;10238;49.556;10.956;2024-03-02T10:23:11;97342.03;;;10.93;100.00
20156;BME280;10238;49.556;10.956;2024-03-02T10:25:59;97331.84;;;10.97;100.00
20156;BME280;10238;49.556;10.956;2024-03-02T10:28:47;97339.38;;;10.93;100.00
20156;BME280;10238;49.556;10.956;2024-03-02T10:31:37;97337.28;;;11.04;100.00
20156;BME280;10238;49.556;10.956;2024-03-02T10:34:25;97341.69;;;11.11;100.00
20156;BME280;10238;49.556;10.956;2024-03-02T10:37:15;97334.16;;;11.15;100.00
20156;BME280;10238;49.556;10.956;2024-03-02T10:40:05;97328.84;;;11.15;100.00
20156;BME280;10238;49.556;10.956;2024-03-02T10:42:55;97320.03;;;11.29;100.00
20156;BME280;10238;49.556;10.956;2024-03-02T10:45:46;97319.47;;;11.48;100.00
20156;BME280;10238;49.556;10.956;2024-03-02T10:48:39;97317.72;;;11.69;100.00
20156;BME280;10238;49.556;10.956;2024-03-02T10:51:31;97309.94;;;11.68;100.00
20156;BME280;10238;49.556;10.956;2024-03-02T10:54:19;97303.50;;;11.77;100.00
20156;BME280;10238;49.556;10.956;2024-03-02T10:57:16;97297.56;;;11.96;100.00
20156;BME280;10238;49.556;10.956;2024-03-02T11:00:12;97296.09;;;12.14;100.00
20156;BME280;10238;49.556;10.956;2024-03-02T11:03:06;97294.75;;;12.25;100.00
20156;BME280;10238;49.556;10.956;2024-03-02T11:05:59;97286.72;;;12.46;100.00
20156;BME280;10238;49.556;10.956;2024-03-02T11:08:49;97290.22;;;12.67;100.00
20156;BME280;10238;49.556;10.956;2024-03-02T11:11:43;97274.91;;;12.82;100.00
20156;BME280;10238;49.556;10.956;2024-03-02T11:14:32;97265.47;;;12.80;100.00
20156;BME280;10238;49.556;10.956;2024-03-02T11:17:21;97258.19;;;12.95;100.00
20156;BME280;10238;49.556;10.956;2024-03-02T11:20:10;97259.09;;;13.02;100.00
20156;BME280;10238;49.556;10.956;2024-03-02T11:23:05;97253.56;;;13.03;100.00
20156;BME280;10238;49.556;10.956;2024-03-02T11:25:52;97249.25;;;13.09;100.00
20156;BME280;10238;49.556;10.956;2024-03-02T11:28:40;97245.09;;;13.00;100.00
20156;BME280;10238;49.556;10.956;2024-03-02T11:31:57;97246.38;;;13.04;100.00
20156;BME280;10238;49.556;10.956;2024-03-02T11:34:49;97235.53;;;13.12;100.00
20156;BME280;10238;49.556;10.956;2024-03-02T11:37:37;97239.88;;;13.20;100.00
20156;BME280;10238;49.556;10.956;2024-03-02T11:40:27;97237.22;;;13.20;100.00
20156;BME280;10238;49.556;10.956;2024-03-02T11:43:15;97234.91;;;13.10;100.00
20156;BME280;10238;49.556;10.956;2024-03-02T11:46:05;97239.88;;;13.20;100.00
20156;BME280;10238;49.556;10.956;2024-03-02T11:48:55;97230.88;;;13.27;100.00
20156;BME280;10238;49.556;10.956;2024-03-02T11:52:00;97232.91;;;13.25;100.00
20156;BME280;10238;49.556;10.956;2024-03-02T11:54:49;97225.56;;;13.27;100.00
20156;BME280;10238;49.556;10.956;2024-03-02T11:57:39;97227.69;;;13.51;100.00
20156;BME280;10238;49.556;10.956;2024-03-02T12:00:27;97228.06;;;13.42;100.00
20156;BME280;10238;49.556;10.956;2024-03-02T12:03:15;97220.72;;;13.50;100.00
20156;BME280;10238;49.556;10.956;2024-03-02T12:06:03;97211.69;;;13.58;100.00
20156;BME280;10238;49.556;10.956;2024-03-02T12:08:53;97213.78;;;13.82;100.00
20156;BME280;10238;49.556;10.956;2024-03-02T12:11:41;97208.09;;;14.04;100.00
20156;BME280;10238;49.556;10.956;2024-03-02T12:14:30;97212.19;;;14.20;100.00
20156;BME280;10238;49.556;10.956;2024-03-02T12:17:18;97203.38;;;14.06;100.00
20156;BME280;10238;49.556;10.956;2024-03-02T12:20:07;97191.44;;;14.02;100.00
20156;BME280;10238;49.556;10.956;2024-03-02T12:22:57;97198.63;;;14.21;100.00
20156;BME280;10238;49.556;10.956;2024-03-02T12:25:46;97186.34;;;14.27;100.00
20156;BME280;10238;49.556;10.956;2024-03-02T12:28:35;97184.66;;;14.39;100.00
20156;BME280;10238;49.556;10.956;2024-03-02T12:31:24;97179.09;;;14.60;100.00
20156;BME280;10238;49.556;10.956;2024-03-02T12:34:13;97172.09;;;14.65;100.00
20156;BME280;10238;49.556;10.956;2024-03-02T12:37:01;97162.47;;;14.51;100.00
20156;BME280;10238;49.556;10.956;2024-03-02T12:39:50;97168.19;;;14.61;100.00
20156;BME280;10238;49.556;10.956;2024-03-02T12:42:38;97164.06;;;14.72;100.00
20156;BME280;10238;49.556;10.956;2024-03-02T12:45:26;97164.03;;;14.78;100.00
20156;BME280;10238;49.556;10.956;2024-03-02T12:48:15;97149.63;;;14.86;100.00
20156;BME280;10238;49.556;10.956;2024-03-02T12:51:04;97148.97;;;14.90;100.00
20156;BME280;10238;49.556;10.956;2024-03-02T12:53:56;97155.56;;;14.94;100.00
20156;BME280;10238;49.556;10.956;2024-03-02T12:56:44;97148.50;;;15.13;100.00
20156;BME280;10238;49.556;10.956;2024-03-02T12:59:33;97141.75;;;14.97;100.00
20156;BME280;10238;49.556;10.956;2024-03-02T13:02:20;97142.75;;;15.09;100.00
20156;BME280;10238;49.556;10.956;2024-03-02T13:05:10;97128.25;;;15.23;100.00
20156;BME280;10238;49.556;10.956;2024-03-02T13:07:58;97129.06;;;15.31;100.00
20156;BME280;10238;49.556;10.956;2024-03-02T13:10:47;97127.19;;;15.38;100.00
20156;BME280;10238;49.556;10.956;2024-03-02T13:13:34;97131.00;;;15.10;100.00
20156;BME280;10238;49.556;10.956;2024-03-02T13:16:23;97129.97;;;15.11;100.00
20156;BME280;10238;49.556;10.956;2024-03-02T13:19:18;97131.41;;;15.14;100.00
20156;BME280;10238;49.556;10.956;2024-03-02T13:22:07;97123.88;;;15.36;100.00
20156;BME280;10238;49.556;10.956;2024-03-02T13:24:55;97119.38;;;15.30;100.00
20156;BME280;10238;49.556;10.956;2024-03-02T13:27:43;97125.63;;;15.10;100.00
20156;BME280;10238;49.556;10.956;2024-03-02T13:30:31;97126.94;;;15.01;100.00
20156;BME280;10238;49.556;10.956;2024-03-02T13:33:19;97123.69;;;14.80;100.00
20156;BME280;10238;49.556;10.956;2024-03-02T13:36:09;97117.53;;;14.79;100.00
20156;BME280;10238;49.556;10.956;2024-03-02T13:38:59;97123.66;;;14.93;100.00
20156;BME280;10238;49.556;10.956;2024-03-02T13:41:47;97116.91;;;14.84;100.00
20156;BME280;10238;49.556;10.956;2024-03-02T13:44:39;97113.09;;;14.54;100.00
20156;BME280;10238;49.556;10.956;2024-03-02T13:47:28;97120.84;;;14.75;100.00
20156;BME280;10238;49.556;10.956;2024-03-02T13:50:16;97114.03;;;14.72;100.00
20156;BME280;10238;49.556;10.956;2024-03-02T13:53:03;97114.19;;;14.90;100.00
20156;BME280;10238;49.556;10.956;2024-03-02T13:55:54;97113.03;;;14.67;100.00
20156;BME280;10238;49.556;10.956;2024-03-02T13:58:43;97108.97;;;14.45;100.00
20156;BME280;10238;49.556;10.956;2024-03-02T14:01:32;97111.09;;;14.30;100.00
20156;BME280;10238;49.556;10.956;2024-03-02T14:04:20;97116.38;;;14.49;100.00
20156;BME280;10238;49.556;10.956;2024-03-02T14:07:08;97103.59;;;14.58;100.00
20156;BME280;10238;49.556;10.956;2024-03-02T14:09:57;97104.00;;;14.68;100.00
20156;BME280;10238;49.556;10.956;2024-03-02T14:12:46;97112.56;;;14.89;100.00
20156;BME280;10238;49.556;10.956;2024-03-02T14:15:33;97099.91;;;15.16;100.00
20156;BME280;10238;49.556;10.956;2024-03-02T14:18:24;97097.25;;;15.47;100.00
20156;BME280;10238;49.556;10.956;2024-03-02T14:21:12;97092.22;;;15.64;100.00
20156;BME280;10238;49.556;10.956;2024-03-02T14:24:00;97085.47;;;15.55;100.00
20156;BME280;10238;49.556;10.956;2024-03-02T14:26:48;97080.47;;;15.27;100.00
20156;BME280;10238;49.556;10.956;2024-03-02T14:29:37;97084.41;;;15.18;100.00
20156;BME280;10238;49.556;10.956;2024-03-02T14:32:26;97089.75;;;15.25;100.00
20156;BME280;10238;49.556;10.956;2024-03-02T14:35:14;97088.34;;;15.53;100.00
20156;BME280;10238;49.556;10.956;2024-03-02T14:38:02;97071.44;;;15.84;100.00
20156;BME280;10238;49.556;10.956;2024-03-02T14:40:49;97076.72;;;16.15;100.00
20156;BME280;10238;49.556;10.956;2024-03-02T14:43:38;97070.88;;;16.24;100.00
20156;BME280;10238;49.556;10.956;2024-03-02T14:46:27;97067.28;;;16.12;100.00
20156;BME280;10238;49.556;10.956;2024-03-02T14:49:15;97060.88;;;16.13;100.00
20156;BME280;10238;49.556;10.956;2024-03-02T14:52:04;97060.25;;;15.69;100.00